Time;durP1;ratioP1;P1;durP2;ratioP2;P2;SDS_P1;SDS_P2;PMS_P1;PMS_P2;Temp;Humidity;BMP_temperature;BMP_pressure;BME280_temperature;BME280_humidity;BME280_pressure;Samples;Min_cycle;Max_cycle;Signal;HPM_P1;HPM_P2
2022/01/01 00:00:16;;;;;;;;;;;21.60;47.40;;;;;;1545649;77;670;-66
2022/01/01 00:02:18;;;;;;;;;;;21.60;47.40;;;;;;1545518;77;905;-67
2022/01/01 00:04:20;;;;;;;;;;;21.60;47.40;;;;;;1545510;77;1959;-67
2022/01/01 00:06:22;;;;;;;;;;;21.60;47.40;;;;;;1545679;76;768;-68
2022/01/01 00:08:24;;;;;;;;;;;21.60;47.40;;;;;;1545609;77;780;-66
2022/01/01 00:10:25;;;;;;;;;;;21.60;47.30;;;;;;1545627;77;735;-66
2022/01/01 00:12:27;;;;;;;;;;;21.60;47.40;;;;;;1545644;77;791;-66
2022/01/01 00:14:32;;;;;;;;;;;21.60;47.40;;;;;;1545593;77;1126;-67
2022/01/01 00:16:34;;;;;;;;;;;21.60;47.40;;;;;;1545528;77;859;-68
2022/01/01 00:18:36;;;;;;;;;;;21.60;47.40;;;;;;1545566;76;811;-64
2022/01/01 00:20:38;;;;;;;;;;;21.60;47.40;;;;;;1545606;77;769;-66
2022/01/01 00:22:40;;;;;;;;;;;21.60;47.40;;;;;;1545685;77;795;-66
2022/01/01 00:24:42;;;;;;;;;;;21.60;47.40;;;;;;1545514;77;1957;-65
2022/01/01 00:26:44;;;;;;;;;;;21.60;47.40;;;;;;1545639;77;720;-66
2022/01/01 00:28:46;;;;;;;;;;;21.60;47.40;;;;;;1545557;77;690;-67
2022/01/01 00:30:48;;;;;;;;;;;21.60;47.40;;;;;;1545584;77;712;-66
2022/01/01 00:32:50;;;;;;;;;;;21.60;47.40;;;;;;1545640;77;615;-67
2022/01/01 00:34:51;;;;;;;;;;;21.60;47.40;;;;;;1545465;77;1048;-68
2022/01/01 00:36:53;;;;;;;;;;;21.60;47.40;;;;;;1545641;77;775;-70
2022/01/01 00:38:55;;;;;;;;;;;21.60;47.40;;;;;;1545550;77;745;-66
2022/01/01 00:40:57;;;;;;;;;;;21.60;47.40;;;;;;1545548;77;765;-66
2022/01/01 00:43:01;;;;;;;;;;;21.60;47.40;;;;;;1545625;77;810;-66
2022/01/01 00:45:02;;;;;;;;;;;21.60;47.40;;;;;;1545476;76;1950;-66
2022/01/01 00:47:04;;;;;;;;;;;21.60;47.40;;;;;;1545673;77;739;-68
2022/01/01 00:49:06;;;;;;;;;;;21.60;47.40;;;;;;1545647;77;735;-68
2022/01/01 00:51:08;;;;;;;;;;;21.60;47.40;;;;;;1545534;76;749;-67
2022/01/01 00:53:10;;;;;;;;;;;21.60;47.40;;;;;;1545593;76;825;-66
2022/01/01 00:55:12;;;;;;;;;;;21.60;47.30;;;;;;1545403;77;1118;-67
2022/01/01 00:57:14;;;;;;;;;;;21.60;47.30;;;;;;1545532;77;723;-66
2022/01/01 00:59:16;;;;;;;;;;;21.60;47.30;;;;;;1545552;77;707;-66
2022/01/01 01:01:17;;;;;;;;;;;21.60;47.40;;;;;;1545501;77;784;-67
2022/01/01 01:03:19;;;;;;;;;;;21.60;47.40;;;;;;1545672;76;637;-67
2022/01/01 01:05:21;;;;;;;;;;;21.60;47.30;;;;;;1545497;77;1947;-70
2022/01/01 01:07:23;;;;;;;;;;;21.60;47.30;;;;;;1545705;76;715;-67
2022/01/01 01:09:25;;;;;;;;;;;21.60;47.40;;;;;;1545570;77;700;-66
2022/01/01 01:11:28;;;;;;;;;;;21.60;47.40;;;;;;1556821;76;788;-66
2022/01/01 01:13:32;;;;;;;;;;;21.60;47.40;;;;;;1567825;76;715;-66
2022/01/01 01:15:34;;;;;;;;;;;21.60;47.40;;;;;;1567682;76;1559;-66
2022/01/01 01:17:36;;;;;;;;;;;21.60;47.40;;;;;;1567797;76;650;-68
2022/01/01 01:19:38;;;;;;;;;;;21.60;47.40;;;;;;1567879;74;806;-66
2022/01/01 01:21:40;;;;;;;;;;;21.60;47.50;;;;;;1567917;76;777;-66
2022/01/01 01:23:42;;;;;;;;;;;21.60;47.40;;;;;;1567911;76;1176;-66
2022/01/01 01:25:44;;;;;;;;;;;21.50;47.40;;;;;;1567757;76;1899;-66
2022/01/01 01:27:46;;;;;;;;;;;21.60;47.40;;;;;;1567867;76;736;-66
2022/01/01 01:29:49;;;;;;;;;;;21.60;47.40;;;;;;1567861;76;737;-67
2022/01/01 01:31:51;;;;;;;;;;;21.60;47.30;;;;;;1567808;76;766;-69
2022/01/01 01:33:53;;;;;;;;;;;21.60;47.40;;;;;;1567770;76;1125;-67
2022/01/01 01:35:55;;;;;;;;;;;21.60;47.30;;;;;;1567893;74;734;-66
2022/01/01 01:37:56;;;;;;;;;;;21.60;47.40;;;;;;1567822;75;721;-65
2022/01/01 01:40:00;;;;;;;;;;;21.60;47.30;;;;;;1567865;75;775;-66
2022/01/01 01:42:02;;;;;;;;;;;21.60;47.30;;;;;;1567417;76;1523;-66
2022/01/01 01:44:07;;;;;;;;;;;21.50;47.40;;;;;;1567869;76;1109;-66
2022/01/01 01:46:12;;;;;;;;;;;21.50;47.40;;;;;;1564430;76;1971;-66
2022/01/01 01:48:12;;;;;;;;;;;21.60;47.40;;;;;;1567188;76;1665;-66
2022/01/01 01:50:15;;;;;;;;;;;21.60;47.40;;;;;;1567947;76;793;-66
2022/01/01 01:52:17;;;;;;;;;;;21.60;47.40;;;;;;1567844;74;805;-66
2022/01/01 01:54:19;;;;;;;;;;;21.60;47.40;;;;;;1567856;76;1159;-66
2022/01/01 01:56:21;;;;;;;;;;;21.60;47.40;;;;;;1567858;75;676;-66
2022/01/01 01:58:23;;;;;;;;;;;21.60;47.40;;;;;;1567929;76;788;-69
2022/01/01 02:00:50;;;;;;;;;;;21.50;47.40;;;;;;1567928;76;727;-66
2022/01/01 02:02:28;;;;;;;;;;;21.60;47.40;;;;;;1538565;76;1443;-66
2022/01/01 02:04:30;;;;;;;;;;;21.50;47.30;;;;;;1542676;77;1174;-66
2022/01/01 02:06:32;;;;;;;;;;;21.60;47.30;;;;;;1570467;75;1930;-66
2022/01/01 02:08:34;;;;;;;;;;;21.60;47.30;;;;;;1540335;77;718;-65
2022/01/01 02:10:36;;;;;;;;;;;21.60;47.30;;;;;;1570187;75;760;-66
2022/01/01 02:12:40;;;;;;;;;;;21.60;47.40;;;;;;1545541;77;547;-66
2022/01/01 02:15:06;;;;;;;;;;;21.50;47.30;;;;;;1545476;77;1604;-65
2022/01/01 02:17:08;;;;;;;;;;;21.60;47.40;;;;;;1544261;75;1603;-67
2022/01/01 02:18:55;;;;;;;;;;;21.50;47.30;;;;;;1538337;76;1658;-66
2022/01/01 02:20:57;;;;;;;;;;;21.50;47.30;;;;;;1539904;77;636;-66
2022/01/01 02:23:01;;;;;;;;;;;21.50;47.40;;;;;;1539839;77;776;-66
2022/01/01 02:25:03;;;;;;;;;;;21.50;47.40;;;;;;1539734;77;1940;-66
2022/01/01 02:27:05;;;;;;;;;;;21.60;47.40;;;;;;1539865;77;875;-66
2022/01/01 02:29:09;;;;;;;;;;;21.60;47.30;;;;;;1509232;78;1338;-66
2022/01/01 02:31:11;;;;;;;;;;;21.60;47.40;;;;;;1539925;77;786;-68
2022/01/01 02:33:13;;;;;;;;;;;21.60;47.30;;;;;;1539790;77;749;-68
2022/01/01 02:35:15;;;;;;;;;;;21.50;47.30;;;;;;1539770;77;1110;-66
2022/01/01 02:37:17;;;;;;;;;;;21.60;47.30;;;;;;1539898;77;683;-67
2022/01/01 02:39:20;;;;;;;;;;;21.60;47.30;;;;;;1539845;77;725;-69
2022/01/01 02:41:22;;;;;;;;;;;21.60;47.30;;;;;;1539868;77;716;-66
2022/01/01 02:43:25;;;;;;;;;;;21.60;47.30;;;;;;1539878;77;655;-68
2022/01/01 02:45:29;;;;;;;;;;;21.60;47.30;;;;;;1539773;77;1925;-67
2022/01/01 02:47:30;;;;;;;;;;;21.60;47.30;;;;;;1539847;77;2002;-66
2022/01/01 02:49:32;;;;;;;;;;;21.60;47.30;;;;;;1539834;77;620;-66
2022/01/01 02:51:34;;;;;;;;;;;21.60;47.30;;;;;;1540054;77;625;-67
2022/01/01 02:53:36;;;;;;;;;;;21.60;47.30;;;;;;1539923;77;759;-67
2022/01/01 02:55:38;;;;;;;;;;;21.60;47.40;;;;;;1539826;77;1136;-66
2022/01/01 02:57:40;;;;;;;;;;;21.50;47.30;;;;;;1539982;77;780;-66
2022/01/01 02:59:42;;;;;;;;;;;21.50;47.30;;;;;;1539943;77;727;-66
2022/01/01 03:01:43;;;;;;;;;;;21.50;47.30;;;;;;1539955;77;781;-66
2022/01/01 03:03:46;;;;;;;;;;;21.50;47.30;;;;;;1539950;77;1166;-67
2022/01/01 03:05:48;;;;;;;;;;;21.50;47.30;;;;;;1544984;77;1900;-69
2022/01/01 03:07:50;;;;;;;;;;;21.60;47.40;;;;;;1545641;76;704;-66
2022/01/01 03:09:54;;;;;;;;;;;21.60;47.30;;;;;;1545614;77;784;-66
2022/01/01 03:11:56;;;;;;;;;;;21.60;47.30;;;;;;1545528;77;1929;-66
2022/01/01 03:13:58;;;;;;;;;;;21.60;47.30;;;;;;1545613;77;1164;-67
2022/01/01 03:15:59;;;;;;;;;;;21.60;47.30;;;;;;1545573;77;578;-66
2022/01/01 03:18:02;;;;;;;;;;;21.60;47.30;;;;;;1545697;77;779;-69
2022/01/01 03:20:04;;;;;;;;;;;21.50;47.30;;;;;;1545570;77;771;-67
2022/01/01 03:22:06;;;;;;;;;;;21.60;47.30;;;;;;1545599;77;788;-67
2022/01/01 03:24:08;;;;;;;;;;;21.50;47.30;;;;;;1545664;77;1039;-67
2022/01/01 03:26:10;;;;;;;;;;;21.60;47.30;;;;;;1545461;77;1940;-66
2022/01/01 03:28:12;;;;;;;;;;;21.60;47.30;;;;;;1545671;77;724;-66
2022/01/01 03:30:14;;;;;;;;;;;21.60;47.40;;;;;;1545640;77;734;-66
2022/01/01 03:32:16;;;;;;;;;;;21.60;47.30;;;;;;1545660;77;787;-67
2022/01/01 03:34:18;;;;;;;;;;;21.60;47.30;;;;;;1545669;77;1130;-66
2022/01/01 03:36:20;;;;;;;;;;;21.60;47.30;;;;;;1545503;77;716;-67
2022/01/01 03:38:21;;;;;;;;;;;21.60;47.30;;;;;;1545586;77;716;-66
2022/01/01 03:40:23;;;;;;;;;;;21.60;47.40;;;;;;1545633;77;755;-67
2022/01/01 03:42:27;;;;;;;;;;;21.60;47.30;;;;;;1545590;77;706;-67
2022/01/01 03:44:29;;;;;;;;;;;21.60;47.30;;;;;;1545643;77;2101;-66
2022/01/01 03:46:31;;;;;;;;;;;21.60;47.30;;;;;;1545440;77;1933;-66
2022/01/01 03:48:32;;;;;;;;;;;21.60;47.30;;;;;;1545684;76;719;-67
2022/01/01 03:50:34;;;;;;;;;;;21.60;47.30;;;;;;1545650;77;775;-66
2022/01/01 03:52:38;;;;;;;;;;;21.60;47.30;;;;;;1545734;76;769;-66
2022/01/01 03:54:40;;;;;;;;;;;21.60;47.30;;;;;;1545357;77;1954;-68
2022/01/01 03:56:42;;;;;;;;;;;21.60;47.30;;;;;;1545549;77;796;-68
2022/01/01 03:58:43;;;;;;;;;;;21.60;47.30;;;;;;1545684;77;727;-66
2022/01/01 04:00:45;;;;;;;;;;;21.60;47.30;;;;;;1545616;77;724;-66
2022/01/01 04:02:47;;;;;;;;;;;21.60;47.30;;;;;;1545673;77;714;-66
2022/01/01 04:04:49;;;;;;;;;;;21.60;47.30;;;;;;1545111;77;1165;-66
2022/01/01 04:06:51;;;;;;;;;;;21.60;47.30;;;;;;1544261;77;1935;-66
2022/01/01 04:08:53;;;;;;;;;;;21.60;47.30;;;;;;1544382;77;672;-66
2022/01/01 04:10:55;;;;;;;;;;;21.60;47.30;;;;;;1544435;77;706;-69
2022/01/01 04:12:58;;;;;;;;;;;21.60;47.30;;;;;;1544429;77;686;-69
2022/01/01 04:15:02;;;;;;;;;;;21.70;47.30;;;;;;1543496;77;1135;-66
2022/01/01 04:17:04;;;;;;;;;;;21.70;47.40;;;;;;1544203;77;843;-67
2022/01/01 04:19:06;;;;;;;;;;;21.60;47.30;;;;;;1544288;77;746;-66
2022/01/01 04:21:08;;;;;;;;;;;21.60;47.30;;;;;;1544470;77;559;-68
2022/01/01 04:23:10;;;;;;;;;;;21.60;47.30;;;;;;1544272;77;640;-67
2022/01/01 04:25:12;;;;;;;;;;;21.60;47.30;;;;;;1544236;77;1118;-66
2022/01/01 04:27:14;;;;;;;;;;;21.70;47.40;;;;;;1544262;77;1935;-66
2022/01/01 04:29:16;;;;;;;;;;;21.60;47.30;;;;;;1544421;77;764;-68
2022/01/01 04:31:17;;;;;;;;;;;21.60;47.30;;;;;;1544387;77;750;-66
2022/01/01 04:33:19;;;;;;;;;;;21.60;47.30;;;;;;1544362;77;727;-66
2022/01/01 04:35:21;;;;;;;;;;;21.60;47.30;;;;;;1544285;77;1044;-66
2022/01/01 04:37:23;;;;;;;;;;;21.60;47.30;;;;;;1544220;77;800;-66
2022/01/01 04:39:25;;;;;;;;;;;21.60;47.30;;;;;;1544426;77;789;-67
2022/01/01 04:41:27;;;;;;;;;;;21.60;47.30;;;;;;1544364;77;781;-66
2022/01/01 04:43:29;;;;;;;;;;;21.60;47.30;;;;;;1544363;77;641;-67
2022/01/01 04:45:30;;;;;;;;;;;21.60;47.30;;;;;;1544254;77;1091;-69
2022/01/01 04:47:32;;;;;;;;;;;21.60;47.30;;;;;;1544289;77;1943;-66
2022/01/01 04:49:34;;;;;;;;;;;21.60;47.30;;;;;;1544429;77;788;-66
2022/01/01 04:51:36;;;;;;;;;;;21.70;47.40;;;;;;1544373;77;777;-67
2022/01/01 04:53:44;;;;;;;;;;;21.70;47.30;;;;;;1544250;77;783;-67
2022/01/01 04:55:45;;;;;;;;;;;21.70;47.30;;;;;;1543990;77;1673;-66
2022/01/01 04:57:47;;;;;;;;;;;21.60;47.30;;;;;;1544245;77;789;-66
2022/01/01 04:59:49;;;;;;;;;;;21.60;47.30;;;;;;1544426;77;772;-66
2022/01/01 05:01:51;;;;;;;;;;;21.60;47.30;;;;;;1544335;77;787;-66
2022/01/01 05:03:52;;;;;;;;;;;21.70;47.30;;;;;;1544226;77;1139;-66
2022/01/01 05:05:54;;;;;;;;;;;21.70;47.30;;;;;;1545429;77;1362;-67
2022/01/01 05:07:56;;;;;;;;;;;21.60;47.30;;;;;;1545472;77;1943;-68
2022/01/01 05:09:59;;;;;;;;;;;21.60;47.20;;;;;;1545668;77;731;-69
2022/01/01 05:12:01;;;;;;;;;;;21.60;47.30;;;;;;1545538;77;783;-67
2022/01/01 05:14:03;;;;;;;;;;;21.60;47.30;;;;;;1545558;77;1201;-67
2022/01/01 05:16:05;;;;;;;;;;;21.60;47.30;;;;;;1545580;77;801;-67
2022/01/01 05:18:07;;;;;;;;;;;21.60;47.30;;;;;;1545473;76;831;-68
2022/01/01 05:20:09;;;;;;;;;;;21.60;47.30;;;;;;1545679;77;793;-66
2022/01/01 05:22:11;;;;;;;;;;;21.60;47.30;;;;;;1545571;77;724;-69
2022/01/01 05:24:18;;;;;;;;;;;21.60;47.30;;;;;;1545578;77;1118;-65
2022/01/01 05:26:16;;;;;;;;;;;21.60;47.30;;;;;;1544857;76;1919;-63
2022/01/01 05:28:18;;;;;;;;;;;21.60;47.30;;;;;;1545584;77;716;-66
2022/01/01 05:30:20;;;;;;;;;;;21.60;47.30;;;;;;1545727;77;675;-66
2022/01/01 05:32:22;;;;;;;;;;;21.60;47.30;;;;;;1545696;77;645;-66
2022/01/01 05:34:24;;;;;;;;;;;21.60;47.30;;;;;;1545585;77;1173;-67
2022/01/01 05:36:25;;;;;;;;;;;21.60;47.30;;;;;;1545599;77;793;-66
2022/01/01 05:38:27;;;;;;;;;;;21.60;47.30;;;;;;1545727;77;753;-66
2022/01/01 05:40:30;;;;;;;;;;;21.60;47.30;;;;;;1545730;77;748;-66
2022/01/01 05:42:32;;;;;;;;;;;21.60;47.30;;;;;;1545648;77;787;-67
2022/01/01 05:44:34;;;;;;;;;;;21.60;47.30;;;;;;1545588;76;1088;-66
2022/01/01 05:46:36;;;;;;;;;;;21.60;47.30;;;;;;1545626;77;1951;-66
2022/01/01 05:48:38;;;;;;;;;;;21.70;47.30;;;;;;1545618;77;775;-66
2022/01/01 05:50:40;;;;;;;;;;;21.60;47.30;;;;;;1545580;77;768;-66
2022/01/01 05:52:42;;;;;;;;;;;21.70;47.40;;;;;;1545646;77;764;-66
2022/01/01 05:54:43;;;;;;;;;;;21.60;47.30;;;;;;1545620;77;1126;-66
2022/01/01 05:56:45;;;;;;;;;;;21.60;47.30;;;;;;1545695;77;621;-67
2022/01/01 05:58:47;;;;;;;;;;;21.60;47.20;;;;;;1545699;77;648;-66
2022/01/01 06:00:49;;;;;;;;;;;21.60;47.30;;;;;;1545713;77;805;-68
2022/01/01 06:02:51;;;;;;;;;;;21.60;47.30;;;;;;1545640;77;916;-66
2022/01/01 06:04:53;;;;;;;;;;;21.60;47.30;;;;;;1545530;77;1138;-66
2022/01/01 06:06:56;;;;;;;;;;;21.60;47.30;;;;;;1545547;76;1948;-66
2022/01/01 06:08:58;;;;;;;;;;;21.60;47.30;;;;;;1545629;77;750;-67
2022/01/01 06:11:01;;;;;;;;;;;21.60;47.30;;;;;;1551729;76;804;-66
2022/01/01 06:13:04;;;;;;;;;;;21.60;47.30;;;;;;1567917;76;816;-66
2022/01/01 06:15:06;;;;;;;;;;;21.60;47.30;;;;;;1538157;77;1171;-65
2022/01/01 06:17:07;;;;;;;;;;;21.60;47.30;;;;;;1567949;76;792;-66
2022/01/01 06:19:09;;;;;;;;;;;21.60;47.30;;;;;;1567968;76;795;-67
2022/01/01 06:21:11;;;;;;;;;;;21.60;47.30;;;;;;1567989;76;734;-66
2022/01/01 06:23:13;;;;;;;;;;;21.60;47.30;;;;;;1567906;76;764;-66
2022/01/01 06:25:15;;;;;;;;;;;21.60;47.30;;;;;;1567818;76;1125;-66
2022/01/01 06:27:17;;;;;;;;;;;21.60;47.30;;;;;;1567980;74;1938;-67
2022/01/01 06:29:19;;;;;;;;;;;21.70;47.30;;;;;;1568014;76;799;-69
2022/01/01 06:31:21;;;;;;;;;;;21.60;47.20;;;;;;1567838;76;743;-66
2022/01/01 06:33:22;;;;;;;;;;;21.60;47.30;;;;;;1568063;76;792;-66
2022/01/01 06:35:24;;;;;;;;;;;21.60;47.30;;;;;;1567879;76;1121;-66
2022/01/01 06:37:26;;;;;;;;;;;21.60;47.30;;;;;;1568113;76;763;-67
2022/01/01 06:39:28;;;;;;;;;;;21.60;47.30;;;;;;1568009;76;656;-67
2022/01/01 06:41:30;;;;;;;;;;;21.60;47.30;;;;;;1567925;76;664;-66
2022/01/01 06:43:32;;;;;;;;;;;21.60;47.20;;;;;;1568026;76;815;-69
2022/01/01 06:45:34;;;;;;;;;;;21.60;47.20;;;;;;1567910;76;1145;-66
2022/01/01 06:47:35;;;;;;;;;;;21.60;47.30;;;;;;1567941;76;1947;-66
2022/01/01 06:49:37;;;;;;;;;;;21.60;47.30;;;;;;1567881;76;738;-66
2022/01/01 06:51:39;;;;;;;;;;;21.70;47.30;;;;;;1567849;76;722;-66
2022/01/01 06:53:41;;;;;;;;;;;21.60;47.30;;;;;;1567990;76;790;-66
2022/01/01 06:55:43;;;;;;;;;;;21.60;47.30;;;;;;1567819;76;783;-67
2022/01/01 06:57:45;;;;;;;;;;;21.70;47.40;;;;;;1567957;76;664;-67
2022/01/01 06:59:47;;;;;;;;;;;21.60;47.20;;;;;;1568004;76;750;-69
2022/01/01 07:01:49;;;;;;;;;;;21.60;47.20;;;;;;1567874;76;795;-66
2022/01/01 07:03:50;;;;;;;;;;;21.60;47.30;;;;;;1567935;76;1165;-66
2022/01/01 07:05:53;;;;;;;;;;;21.70;47.30;;;;;;1538262;77;1228;-66
2022/01/01 07:07:55;;;;;;;;;;;21.60;47.20;;;;;;1567764;76;1917;-66
2022/01/01 07:09:58;;;;;;;;;;;21.60;47.20;;;;;;1567881;76;713;-66
2022/01/01 07:12:00;;;;;;;;;;;21.60;47.30;;;;;;1550460;76;847;-67
2022/01/01 07:14:02;;;;;;;;;;;21.60;47.20;;;;;;1545571;77;1162;-66
2022/01/01 07:16:04;;;;;;;;;;;21.60;47.20;;;;;;1545585;76;672;-67
2022/01/01 07:18:06;;;;;;;;;;;21.60;47.30;;;;;;1545524;77;845;-66
2022/01/01 07:20:09;;;;;;;;;;;21.60;47.20;;;;;;1545748;77;739;-66
2022/01/01 07:22:10;;;;;;;;;;;21.60;47.20;;;;;;1545557;77;726;-66
2022/01/01 07:24:12;;;;;;;;;;;21.70;47.30;;;;;;1545664;77;1114;-68
2022/01/01 07:26:14;;;;;;;;;;;21.70;47.30;;;;;;1545647;77;853;-66
2022/01/01 07:28:16;;;;;;;;;;;21.60;47.20;;;;;;1545507;77;1927;-66
2022/01/01 07:30:18;;;;;;;;;;;21.60;47.20;;;;;;1545610;77;739;-66
2022/01/01 07:32:20;;;;;;;;;;;21.60;47.20;;;;;;1545638;77;737;-66
2022/01/01 07:34:22;;;;;;;;;;;21.70;47.30;;;;;;1545689;77;1134;-67
2022/01/01 07:36:24;;;;;;;;;;;21.70;47.30;;;;;;1545543;77;786;-66
2022/01/01 07:38:26;;;;;;;;;;;21.60;47.20;;;;;;1545616;77;782;-66
2022/01/01 07:40:28;;;;;;;;;;;21.60;47.20;;;;;;1545723;77;799;-67
2022/01/01 07:42:30;;;;;;;;;;;21.60;47.20;;;;;;1545534;76;815;-66
2022/01/01 07:44:32;;;;;;;;;;;21.60;47.20;;;;;;1545628;76;1126;-66
2022/01/01 07:46:34;;;;;;;;;;;21.70;47.30;;;;;;1545611;77;745;-66
2022/01/01 07:48:36;;;;;;;;;;;21.60;47.20;;;;;;1545482;77;1941;-67
2022/01/01 07:50:38;;;;;;;;;;;21.60;47.20;;;;;;1545690;77;818;-68
2022/01/01 07:52:41;;;;;;;;;;;21.60;47.20;;;;;;1545614;77;651;-67
2022/01/01 07:54:43;;;;;;;;;;;21.60;47.20;;;;;;1545588;77;1130;-66
2022/01/01 07:56:45;;;;;;;;;;;21.60;47.20;;;;;;1545674;76;789;-66
2022/01/01 07:58:47;;;;;;;;;;;21.70;47.30;;;;;;1545494;77;770;-66
2022/01/01 08:00:49;;;;;;;;;;;21.60;47.20;;;;;;1545698;77;774;-66
2022/01/01 08:02:51;;;;;;;;;;;21.60;47.20;;;;;;1545667;77;567;-66
2022/01/01 08:04:53;;;;;;;;;;;21.60;47.20;;;;;;1545540;77;1093;-67
2022/01/01 08:06:55;;;;;;;;;;;21.60;47.20;;;;;;1545607;77;717;-68
2022/01/01 08:08:57;;;;;;;;;;;21.60;47.20;;;;;;1545450;77;1936;-66
2022/01/01 08:10:59;;;;;;;;;;;21.60;47.20;;;;;;1551592;76;784;-66
2022/01/01 08:13:00;;;;;;;;;;;21.60;47.20;;;;;;1567902;76;717;-66
2022/01/01 08:15:04;;;;;;;;;;;21.60;47.20;;;;;;1567847;76;1141;-66
2022/01/01 08:17:06;;;;;;;;;;;21.60;47.20;;;;;;1566634;76;1012;-66
2022/01/01 08:19:08;;;;;;;;;;;21.60;47.20;;;;;;1567923;76;594;-67
2022/01/01 08:21:09;;;;;;;;;;;21.70;47.30;;;;;;1568036;76;645;-68
2022/01/01 08:23:11;;;;;;;;;;;21.60;47.20;;;;;;1567992;76;750;-67
2022/01/01 08:25:16;;;;;;;;;;;21.60;47.20;;;;;;1567704;76;1101;-66
2022/01/01 08:27:17;;;;;;;;;;;21.60;47.20;;;;;;1567677;76;1934;-66
2022/01/01 08:29:19;;;;;;;;;;;21.60;47.20;;;;;;1567923;76;773;-67
2022/01/01 08:31:21;;;;;;;;;;;21.70;47.30;;;;;;1567974;76;765;-67
2022/01/01 08:33:22;;;;;;;;;;;21.70;47.30;;;;;;1568029;76;709;-67
2022/01/01 08:35:24;;;;;;;;;;;21.70;47.30;;;;;;1567676;76;1115;-66
2022/01/01 08:37:26;;;;;;;;;;;21.70;47.30;;;;;;1567995;76;791;-66
2022/01/01 08:39:28;;;;;;;;;;;21.70;47.30;;;;;;1567833;76;705;-66
2022/01/01 08:41:30;;;;;;;;;;;21.60;47.20;;;;;;1567982;76;765;-66
2022/01/01 08:43:32;;;;;;;;;;;21.60;47.20;;;;;;1567961;76;744;-66
2022/01/01 08:45:34;;;;;;;;;;;21.60;47.20;;;;;;1567724;75;1109;-67
2022/01/01 08:47:36;;;;;;;;;;;21.70;47.30;;;;;;1567851;76;1935;-66
2022/01/01 08:49:38;;;;;;;;;;;21.60;47.20;;;;;;1567892;76;740;-66
2022/01/01 08:51:43;;;;;;;;;;;21.70;47.30;;;;;;1567968;76;710;-66
2022/01/01 08:53:46;;;;;;;;;;;21.60;47.20;;;;;;1567833;76;1212;-66
2022/01/01 08:55:48;;;;;;;;;;;21.60;47.20;;;;;;1567694;76;718;-66
2022/01/01 08:57:50;;;;;;;;;;;21.60;47.20;;;;;;1567838;76;796;-68
2022/01/01 08:59:52;;;;;;;;;;;21.70;47.30;;;;;;1567816;76;731;-66
2022/01/01 09:01:54;;;;;;;;;;;21.60;47.20;;;;;;1567768;76;843;-66
2022/01/01 09:03:56;;;;;;;;;;;21.60;47.20;;;;;;1567928;76;1140;-66
2022/01/01 09:05:58;;;;;;;;;;;21.60;47.20;;;;;;1545460;76;1127;-67
2022/01/01 09:07:59;;;;;;;;;;;21.60;47.20;;;;;;1545521;77;1929;-66
2022/01/01 09:10:01;;;;;;;;;;;21.70;47.20;;;;;;1545667;76;717;-70
2022/01/01 09:12:04;;;;;;;;;;;21.70;47.30;;;;;;1545528;77;649;-66
2022/01/01 09:14:06;;;;;;;;;;;21.70;47.20;;;;;;1545568;77;1117;-66
2022/01/01 09:16:10;;;;;;;;;;;21.70;47.20;;;;;;1545373;77;859;-66
2022/01/01 09:18:11;;;;;;;;;;;21.70;47.20;;;;;;1545416;76;1523;-67
2022/01/01 09:20:13;;;;;;;;;;;21.70;47.20;;;;;;1545656;77;676;-66
2022/01/01 09:22:15;;;;;;;;;;;21.70;47.20;;;;;;1545433;77;696;-68
2022/01/01 09:24:17;;;;;;;;;;;21.70;47.20;;;;;;1545615;77;1087;-66
2022/01/01 09:26:20;;;;;;;;;;;21.60;47.10;;;;;;1545381;77;707;-67
2022/01/01 09:28:22;;;;;;;;;;;21.70;47.20;;;;;;1545560;76;1910;-67
2022/01/01 09:30:24;;;;;;;;;;;21.70;47.20;;;;;;1545615;77;712;-67
2022/01/01 09:32:26;;;;;;;;;;;21.70;47.20;;;;;;1545562;77;737;-67
2022/01/01 09:34:28;;;;;;;;;;;21.70;47.20;;;;;;1545563;77;1138;-68
2022/01/01 09:36:30;;;;;;;;;;;21.70;47.20;;;;;;1545481;76;732;-69
2022/01/01 09:38:32;;;;;;;;;;;21.70;47.20;;;;;;1514590;78;1121;-66
2022/01/01 09:40:34;;;;;;;;;;;21.70;47.10;;;;;;1545551;77;714;-67
2022/01/01 09:42:36;;;;;;;;;;;21.70;47.10;;;;;;1545556;77;800;-66
2022/01/01 09:44:38;;;;;;;;;;;21.70;47.10;;;;;;1545511;77;1134;-66
2022/01/01 09:46:41;;;;;;;;;;;21.70;47.10;;;;;;1545359;77;724;-66
2022/01/01 09:48:42;;;;;;;;;;;21.70;47.20;;;;;;1545550;77;1904;-66
2022/01/01 09:50:47;;;;;;;;;;;21.70;47.10;;;;;;1545711;76;728;-66
2022/01/01 09:52:48;;;;;;;;;;;21.70;47.10;;;;;;1545336;76;1657;-67
2022/01/01 09:54:50;;;;;;;;;;;21.70;47.10;;;;;;1545586;77;1106;-67
2022/01/01 09:56:52;;;;;;;;;;;21.70;47.10;;;;;;1545558;77;904;-66
2022/01/01 09:58:53;;;;;;;;;;;21.80;47.10;;;;;;1545654;76;821;-68
2022/01/01 10:00:55;;;;;;;;;;;21.70;47.10;;;;;;1545685;76;727;-67
2022/01/01 10:02:57;;;;;;;;;;;21.80;47.10;;;;;;1545504;77;731;-66
2022/01/01 10:05:01;;;;;;;;;;;21.80;47.10;;;;;;1544789;77;1101;-67
2022/01/01 10:07:03;;;;;;;;;;;21.70;47.10;;;;;;1543975;77;2084;-66
2022/01/01 10:09:07;;;;;;;;;;;21.70;47.10;;;;;;1544261;77;1927;-66
2022/01/01 10:11:10;;;;;;;;;;;21.80;47.10;;;;;;1544288;77;830;-66
2022/01/01 10:13:12;;;;;;;;;;;21.70;47.10;;;;;;1544243;77;664;-66
2022/01/01 10:15:14;;;;;;;;;;;21.80;47.10;;;;;;1513380;78;1105;-66
2022/01/01 10:17:16;;;;;;;;;;;21.80;47.10;;;;;;1544282;77;780;-66
2022/01/01 10:19:18;;;;;;;;;;;21.80;47.10;;;;;;1544411;77;799;-66
2022/01/01 10:21:21;;;;;;;;;;;21.80;47.10;;;;;;1513565;78;801;-66
2022/01/01 10:23:27;;;;;;;;;;;21.80;47.10;;;;;;1544315;77;782;-66
2022/01/01 10:27:47;;;;;;;;;;;21.80;47.10;;;;;;1517877;77;1677;-66
2022/01/01 10:29:49;;;;;;;;;;;21.80;47.10;;;;;;1543522;77;1934;-66
2022/01/01 10:32:04;;;;;;;;;;;21.80;47.10;;;;;;1544386;77;791;-66
2022/01/01 10:34:14;;;;;;;;;;;21.80;47.20;;;;;;1544304;77;1095;-66
2022/01/01 10:36:15;;;;;;;;;;;21.80;47.10;;;;;;1544298;77;715;-66
2022/01/01 10:38:19;;;;;;;;;;;21.80;47.20;;;;;;1544357;77;791;-67
2022/01/01 10:40:25;;;;;;;;;;;21.80;47.10;;;;;;1544338;77;696;-66
2022/01/01 10:42:28;;;;;;;;;;;21.80;47.10;;;;;;1544340;77;675;-66
2022/01/01 10:44:30;;;;;;;;;;;21.80;47.10;;;;;;1544244;77;1208;-66
2022/01/01 10:46:32;;;;;;;;;;;21.80;47.10;;;;;;1544287;77;722;-68
2022/01/01 10:50:42;;;;;;;;;;;21.80;47.10;;;;;;1514597;77;711;-68
2022/01/01 10:52:48;;;;;;;;;;;21.80;47.10;;;;;;1544339;77;867;-68
2022/01/01 10:54:55;;;;;;;;;;;21.80;47.10;;;;;;1542478;77;1602;-69
2022/01/01 10:56:56;;;;;;;;;;;21.90;47.20;;;;;;1544382;77;747;-68
2022/01/01 10:59:02;;;;;;;;;;;21.80;47.10;;;;;;1544348;77;778;-69
2022/01/01 11:01:04;;;;;;;;;;;21.80;47.10;;;;;;1544458;77;739;-68
2022/01/01 11:03:08;;;;;;;;;;;21.80;47.10;;;;;;1544371;77;743;-68
2022/01/01 11:05:10;;;;;;;;;;;21.90;47.20;;;;;;1544952;77;1116;-68
2022/01/01 11:07:12;;;;;;;;;;;21.80;47.10;;;;;;1545706;77;659;-69
2022/01/01 11:09:15;;;;;;;;;;;21.80;47.00;;;;;;1545616;77;1959;-69
2022/01/01 11:11:17;;;;;;;;;;;21.90;47.20;;;;;;1545628;77;773;-68
2022/01/01 11:13:18;;;;;;;;;;;21.90;47.20;;;;;;1545640;77;801;-68
2022/01/01 11:15:21;;;;;;;;;;;21.80;47.10;;;;;;1545636;77;1110;-69
2022/01/01 11:17:23;;;;;;;;;;;21.90;47.30;;;;;;1545581;77;866;-68
2022/01/01 11:19:25;;;;;;;;;;;21.80;47.10;;;;;;1545567;77;726;-69
2022/01/01 11:21:26;;;;;;;;;;;21.90;47.10;;;;;;1545658;77;798;-70
2022/01/01 11:23:28;;;;;;;;;;;21.90;47.20;;;;;;1514900;77;804;-68
2022/01/01 11:25:30;;;;;;;;;;;21.80;47.10;;;;;;1545399;77;1086;-68
2022/01/01 11:27:32;;;;;;;;;;;21.90;47.10;;;;;;1515048;77;821;-67
2022/01/01 11:29:35;;;;;;;;;;;21.90;47.10;;;;;;1545501;77;1911;-68
2022/01/01 11:31:36;;;;;;;;;;;21.90;47.10;;;;;;1545563;77;708;-69
2022/01/01 11:33:40;;;;;;;;;;;21.80;47.00;;;;;;1545705;77;718;-68
2022/01/01 11:35:44;;;;;;;;;;;21.90;47.20;;;;;;1544908;77;1766;-68
2022/01/01 11:37:46;;;;;;;;;;;21.90;47.10;;;;;;1543932;77;1764;-68
2022/01/01 11:39:48;;;;;;;;;;;21.90;47.20;;;;;;1545522;77;758;-68
2022/01/01 11:41:50;;;;;;;;;;;21.90;47.10;;;;;;1545654;77;664;-68
2022/01/01 11:43:53;;;;;;;;;;;21.90;47.10;;;;;;1545638;77;1126;-69
2022/01/01 11:46:00;;;;;;;;;;;21.90;47.10;;;;;;1545515;77;751;-69
2022/01/01 11:48:20;;;;;;;;;;;21.90;47.10;;;;;;1545655;77;751;-70
2022/01/01 11:50:24;;;;;;;;;;;21.90;47.10;;;;;;1545604;77;1909;-70
2022/01/01 11:52:35;;;;;;;;;;;21.90;47.20;;;;;;1541506;77;1831;-68
2022/01/01 11:54:42;;;;;;;;;;;21.90;47.20;;;;;;1545565;77;1107;-68
2022/01/01 11:56:49;;;;;;;;;;;21.90;47.10;;;;;;1545479;76;695;-68
2022/01/01 11:58:51;;;;;;;;;;;21.90;47.20;;;;;;1545565;77;780;-70
2022/01/01 12:00:56;;;;;;;;;;;21.90;47.20;;;;;;1545540;77;777;-69
2022/01/01 12:03:14;;;;;;;;;;;21.90;47.20;;;;;;1545670;77;798;-69
2022/01/01 12:05:16;;;;;;;;;;;21.90;47.10;;;;;;1545528;77;1115;-69
2022/01/01 12:07:24;;;;;;;;;;;21.90;47.10;;;;;;1545554;77;679;-69
2022/01/01 12:09:26;;;;;;;;;;;21.90;47.20;;;;;;1545531;76;1899;-69
2022/01/01 12:11:32;;;;;;;;;;;21.90;47.10;;;;;;1556895;76;772;-69
2022/01/01 12:13:38;;;;;;;;;;;21.90;47.20;;;;;;1567894;76;706;-68